sensor_id;sensor_type;location;lat;lon;timestamp;temperature;humidity
39925;DHT22;25592;49.986;11.618;2023-08-08T00:02:26;14.40;99.90
39925;DHT22;25592;49.986;11.618;2023-08-08T00:05:12;14.40;99.90
39925;DHT22;25592;49.986;11.618;2023-08-08T00:07:58;14.40;99.90
39925;DHT22;25592;49.986;11.618;2023-08-08T00:10:43;14.40;99.90
39925;DHT22;25592;49.986;11.618;2023-08-08T00:13:29;14.40;99.90
39925;DHT22;25592;49.986;11.618;2023-08-08T00:16:14;14.20;99.90
39925;DHT22;25592;49.986;11.618;2023-08-08T00:19:00;14.10;99.90
39925;DHT22;25592;49.986;11.618;2023-08-08T00:21:45;14.00;99.90
39925;DHT22;25592;49.986;11.618;2023-08-08T00:24:31;14.00;99.90
39925;DHT22;25592;49.986;11.618;2023-08-08T00:27:16;14.00;99.90
39925;DHT22;25592;49.986;11.618;2023-08-08T00:30:01;13.90;99.90
39925;DHT22;25592;49.986;11.618;2023-08-08T00:32:47;14.00;99.90
39925;DHT22;25592;49.986;11.618;2023-08-08T00:35:32;14.00;99.90
39925;DHT22;25592;49.986;11.618;2023-08-08T00:38:18;14.10;99.90
39925;DHT22;25592;49.986;11.618;2023-08-08T00:41:03;14.20;99.90
39925;DHT22;25592;49.986;11.618;2023-08-08T00:43:49;14.20;99.90
39925;DHT22;25592;49.986;11.618;2023-08-08T00:46:35;14.20;99.90
39925;DHT22;25592;49.986;11.618;2023-08-08T00:49:21;14.20;99.90
39925;DHT22;25592;49.986;11.618;2023-08-08T00:52:07;14.30;99.90
39925;DHT22;25592;49.986;11.618;2023-08-08T00:54:53;14.20;99.90
39925;DHT22;25592;49.986;11.618;2023-08-08T00:57:39;14.30;99.90
39925;DHT22;25592;49.986;11.618;2023-08-08T01:00:24;14.30;99.90
39925;DHT22;25592;49.986;11.618;2023-08-08T01:03:10;14.40;99.90
39925;DHT22;25592;49.986;11.618;2023-08-08T01:06:47;14.40;99.90
39925;DHT22;25592;49.986;11.618;2023-08-08T01:09:30;14.50;99.90
39925;DHT22;25592;49.986;11.618;2023-08-08T01:12:17;14.40;99.90
39925;DHT22;25592;49.986;11.618;2023-08-08T01:15:05;14.40;99.90
39925;DHT22;25592;49.986;11.618;2023-08-08T01:17:52;14.50;99.90
39925;DHT22;25592;49.986;11.618;2023-08-08T01:20:38;14.50;99.90
39925;DHT22;25592;49.986;11.618;2023-08-08T01:23:39;14.40;99.90
39925;DHT22;25592;49.986;11.618;2023-08-08T01:26:26;14.40;99.90
39925;DHT22;25592;49.986;11.618;2023-08-08T01:29:12;14.40;99.90
39925;DHT22;25592;49.986;11.618;2023-08-08T01:31:58;14.40;99.90
39925;DHT22;25592;49.986;11.618;2023-08-08T01:34:44;14.40;99.90
39925;DHT22;25592;49.986;11.618;2023-08-08T01:37:33;14.40;99.90
39925;DHT22;25592;49.986;11.618;2023-08-08T01:40:20;14.30;99.90
39925;DHT22;25592;49.986;11.618;2023-08-08T01:43:07;14.40;99.90
39925;DHT22;25592;49.986;11.618;2023-08-08T01:45:54;14.30;99.90
39925;DHT22;25592;49.986;11.618;2023-08-08T01:48:39;14.30;99.90
39925;DHT22;25592;49.986;11.618;2023-08-08T01:51:26;14.40;99.90
39925;DHT22;25592;49.986;11.618;2023-08-08T01:54:11;14.40;99.90
39925;DHT22;25592;49.986;11.618;2023-08-08T01:56:56;14.40;99.90
39925;DHT22;25592;49.986;11.618;2023-08-08T01:59:44;14.40;99.90
39925;DHT22;25592;49.986;11.618;2023-08-08T02:02:30;14.40;99.90
39925;DHT22;25592;49.986;11.618;2023-08-08T02:05:16;14.40;99.90
39925;DHT22;25592;49.986;11.618;2023-08-08T02:08:01;14.30;99.90
39925;DHT22;25592;49.986;11.618;2023-08-08T02:10:46;14.30;99.90
39925;DHT22;25592;49.986;11.618;2023-08-08T02:13:32;14.30;99.90
39925;DHT22;25592;49.986;11.618;2023-08-08T02:16:17;14.30;99.90
39925;DHT22;25592;49.986;11.618;2023-08-08T02:19:03;14.30;99.90
39925;DHT22;25592;49.986;11.618;2023-08-08T02:21:48;14.30;99.90
39925;DHT22;25592;49.986;11.618;2023-08-08T02:24:34;14.30;99.90
39925;DHT22;25592;49.986;11.618;2023-08-08T02:27:19;14.30;99.90
39925;DHT22;25592;49.986;11.618;2023-08-08T02:30:05;14.30;99.90
39925;DHT22;25592;49.986;11.618;2023-08-08T02:32:51;14.30;99.90
39925;DHT22;25592;49.986;11.618;2023-08-08T02:35:37;14.30;99.90
39925;DHT22;25592;49.986;11.618;2023-08-08T02:38:23;14.30;99.90
39925;DHT22;25592;49.986;11.618;2023-08-08T02:41:08;14.20;99.90
39925;DHT22;25592;49.986;11.618;2023-08-08T02:43:54;14.30;99.90
39925;DHT22;25592;49.986;11.618;2023-08-08T02:46:39;14.30;99.90
39925;DHT22;25592;49.986;11.618;2023-08-08T02:49:25;14.20;99.90
39925;DHT22;25592;49.986;11.618;2023-08-08T02:52:10;14.20;99.90
39925;DHT22;25592;49.986;11.618;2023-08-08T02:54:56;14.20;99.90
39925;DHT22;25592;49.986;11.618;2023-08-08T02:57:41;14.20;99.90
39925;DHT22;25592;49.986;11.618;2023-08-08T03:00:27;14.20;99.90
39925;DHT22;25592;49.986;11.618;2023-08-08T03:03:12;14.20;99.90
39925;DHT22;25592;49.986;11.618;2023-08-08T03:05:58;14.20;99.90
39925;DHT22;25592;49.986;11.618;2023-08-08T03:08:43;14.20;99.90
39925;DHT22;25592;49.986;11.618;2023-08-08T03:11:29;14.20;99.90
39925;DHT22;25592;49.986;11.618;2023-08-08T03:14:15;14.20;99.90
39925;DHT22;25592;49.986;11.618;2023-08-08T03:17:01;14.20;99.90
39925;DHT22;25592;49.986;11.618;2023-08-08T03:19:46;14.10;99.90
39925;DHT22;25592;49.986;11.618;2023-08-08T03:22:32;14.20;99.90
39925;DHT22;25592;49.986;11.618;2023-08-08T03:25:17;14.10;99.90
39925;DHT22;25592;49.986;11.618;2023-08-08T03:28:03;14.10;99.90
39925;DHT22;25592;49.986;11.618;2023-08-08T03:30:48;14.10;99.90
39925;DHT22;25592;49.986;11.618;2023-08-08T03:33:34;14.10;99.90
39925;DHT22;25592;49.986;11.618;2023-08-08T03:36:19;14.20;99.90
39925;DHT22;25592;49.986;11.618;2023-08-08T03:39:05;14.10;99.90
39925;DHT22;25592;49.986;11.618;2023-08-08T03:41:53;14.10;99.90
39925;DHT22;25592;49.986;11.618;2023-08-08T03:44:39;14.10;99.90
39925;DHT22;25592;49.986;11.618;2023-08-08T03:47:24;14.00;99.90
39925;DHT22;25592;49.986;11.618;2023-08-08T03:50:11;14.00;99.90
39925;DHT22;25592;49.986;11.618;2023-08-08T03:52:57;14.00;99.90
39925;DHT22;25592;49.986;11.618;2023-08-08T03:55:42;14.00;99.90
39925;DHT22;25592;49.986;11.618;2023-08-08T03:58:28;14.00;99.90
39925;DHT22;25592;49.986;11.618;2023-08-08T04:01:13;14.00;99.90
39925;DHT22;25592;49.986;11.618;2023-08-08T04:03:59;14.00;99.90
39925;DHT22;25592;49.986;11.618;2023-08-08T04:06:44;14.00;99.90
39925;DHT22;25592;49.986;11.618;2023-08-08T04:09:30;14.00;99.90
39925;DHT22;25592;49.986;11.618;2023-08-08T04:12:16;13.90;99.90
39925;DHT22;25592;49.986;11.618;2023-08-08T04:15:01;13.90;99.90
39925;DHT22;25592;49.986;11.618;2023-08-08T04:17:47;13.90;99.90
39925;DHT22;25592;49.986;11.618;2023-08-08T04:20:33;13.90;99.90
39925;DHT22;25592;49.986;11.618;2023-08-08T04:23:19;13.90;99.90
39925;DHT22;25592;49.986;11.618;2023-08-08T04:26:04;13.90;99.90
39925;DHT22;25592;49.986;11.618;2023-08-08T04:28:50;13.90;99.90
39925;DHT22;25592;49.986;11.618;2023-08-08T04:31:35;13.90;99.90
39925;DHT22;25592;49.986;11.618;2023-08-08T04:34:21;13.90;99.90
39925;DHT22;25592;49.986;11.618;2023-08-08T04:37:06;13.90;99.90
39925;DHT22;25592;49.986;11.618;2023-08-08T04:39:52;13.90;99.90
39925;DHT22;25592;49.986;11.618;2023-08-08T04:42:37;13.90;99.90
39925;DHT22;25592;49.986;11.618;2023-08-08T04:45:23;14.00;99.90
39925;DHT22;25592;49.986;11.618;2023-08-08T04:48:08;14.00;99.90
39925;DHT22;25592;49.986;11.618;2023-08-08T04:50:54;14.00;99.90
39925;DHT22;25592;49.986;11.618;2023-08-08T04:53:39;14.00;99.90
39925;DHT22;25592;49.986;11.618;2023-08-08T04:56:25;14.00;99.90
39925;DHT22;25592;49.986;11.618;2023-08-08T04:59:12;14.00;99.90
39925;DHT22;25592;49.986;11.618;2023-08-08T05:01:58;14.10;99.90
39925;DHT22;25592;49.986;11.618;2023-08-08T05:04:44;14.00;99.90
39925;DHT22;25592;49.986;11.618;2023-08-08T05:07:29;14.00;99.90
39925;DHT22;25592;49.986;11.618;2023-08-08T05:10:15;14.00;99.90
39925;DHT22;25592;49.986;11.618;2023-08-08T05:13:01;14.00;99.90
39925;DHT22;25592;49.986;11.618;2023-08-08T05:15:46;14.00;99.90
39925;DHT22;25592;49.986;11.618;2023-08-08T05:18:32;14.00;99.90
39925;DHT22;25592;49.986;11.618;2023-08-08T05:21:19;14.10;99.90
39925;DHT22;25592;49.986;11.618;2023-08-08T05:24:04;14.10;99.90
39925;DHT22;25592;49.986;11.618;2023-08-08T05:26:50;14.10;99.90
39925;DHT22;25592;49.986;11.618;2023-08-08T05:29:35;14.00;99.90
39925;DHT22;25592;49.986;11.618;2023-08-08T05:32:23;14.10;99.90
39925;DHT22;25592;49.986;11.618;2023-08-08T05:35:08;14.00;99.90
39925;DHT22;25592;49.986;11.618;2023-08-08T05:37:54;14.10;99.90
39925;DHT22;25592;49.986;11.618;2023-08-08T05:40:40;14.10;99.90
39925;DHT22;25592;49.986;11.618;2023-08-08T05:43:26;14.10;99.90
39925;DHT22;25592;49.986;11.618;2023-08-08T05:46:15;14.20;99.90
39925;DHT22;25592;49.986;11.618;2023-08-08T05:49:00;14.20;99.90
39925;DHT22;25592;49.986;11.618;2023-08-08T05:51:46;14.20;99.90
39925;DHT22;25592;49.986;11.618;2023-08-08T05:54:32;14.30;99.90
39925;DHT22;25592;49.986;11.618;2023-08-08T05:57:17;14.40;99.90
39925;DHT22;25592;49.986;11.618;2023-08-08T06:00:03;14.50;99.90
39925;DHT22;25592;49.986;11.618;2023-08-08T06:02:49;14.50;99.90
39925;DHT22;25592;49.986;11.618;2023-08-08T06:05:34;14.50;99.90
39925;DHT22;25592;49.986;11.618;2023-08-08T06:08:20;14.50;99.90
39925;DHT22;25592;49.986;11.618;2023-08-08T06:11:05;14.40;99.90
39925;DHT22;25592;49.986;11.618;2023-08-08T06:13:51;14.40;99.90
39925;DHT22;25592;49.986;11.618;2023-08-08T06:16:36;14.40;99.90
39925;DHT22;25592;49.986;11.618;2023-08-08T06:19:22;14.40;99.90
39925;DHT22;25592;49.986;11.618;2023-08-08T06:22:07;14.40;99.90
39925;DHT22;25592;49.986;11.618;2023-08-08T06:24:53;14.40;99.90
39925;DHT22;25592;49.986;11.618;2023-08-08T06:27:38;14.40;99.90
39925;DHT22;25592;49.986;11.618;2023-08-08T06:30:24;14.40;99.90
39925;DHT22;25592;49.986;11.618;2023-08-08T06:33:09;14.60;99.90
39925;DHT22;25592;49.986;11.618;2023-08-08T06:35:55;14.70;99.90
39925;DHT22;25592;49.986;11.618;2023-08-08T06:38:41;14.70;99.90
39925;DHT22;25592;49.986;11.618;2023-08-08T06:41:27;14.70;99.90
39925;DHT22;25592;49.986;11.618;2023-08-08T06:44:13;14.70;99.90
39925;DHT22;25592;49.986;11.618;2023-08-08T06:46:59;14.80;99.90
39925;DHT22;25592;49.986;11.618;2023-08-08T06:49:44;14.70;99.90
39925;DHT22;25592;49.986;11.618;2023-08-08T06:52:30;14.80;99.90
39925;DHT22;25592;49.986;11.618;2023-08-08T06:55:15;14.90;99.90
39925;DHT22;25592;49.986;11.618;2023-08-08T06:58:00;14.90;99.90
39925;DHT22;25592;49.986;11.618;2023-08-08T07:00:46;14.90;99.90
39925;DHT22;25592;49.986;11.618;2023-08-08T07:03:32;14.90;99.90
39925;DHT22;25592;49.986;11.618;2023-08-08T07:06:17;15.00;99.90
39925;DHT22;25592;49.986;11.618;2023-08-08T07:09:03;15.00;99.90
39925;DHT22;25592;49.986;11.618;2023-08-08T07:11:48;15.10;99.90
39925;DHT22;25592;49.986;11.618;2023-08-08T07:14:34;15.20;99.90
39925;DHT22;25592;49.986;11.618;2023-08-08T07:17:19;15.20;99.90
39925;DHT22;25592;49.986;11.618;2023-08-08T07:20:05;15.30;99.90
39925;DHT22;25592;49.986;11.618;2023-08-08T07:22:51;15.10;99.90
39925;DHT22;25592;49.986;11.618;2023-08-08T07:25:36;15.10;99.90
39925;DHT22;25592;49.986;11.618;2023-08-08T07:28:22;15.10;99.90
39925;DHT22;25592;49.986;11.618;2023-08-08T07:31:07;15.20;99.90
39925;DHT22;25592;49.986;11.618;2023-08-08T07:33:53;15.30;99.90
39925;DHT22;25592;49.986;11.618;2023-08-08T07:36:38;15.30;99.90
39925;DHT22;25592;49.986;11.618;2023-08-08T07:39:24;15.50;99.90
39925;DHT22;25592;49.986;11.618;2023-08-08T07:42:09;15.60;99.90
39925;DHT22;25592;49.986;11.618;2023-08-08T07:44:55;15.60;99.90
39925;DHT22;25592;49.986;11.618;2023-08-08T07:47:41;15.60;99.90
39925;DHT22;25592;49.986;11.618;2023-08-08T07:50:26;15.60;99.90
39925;DHT22;25592;49.986;11.618;2023-08-08T07:53:12;15.70;99.90
39925;DHT22;25592;49.986;11.618;2023-08-08T07:55:57;15.80;99.90
39925;DHT22;25592;49.986;11.618;2023-08-08T07:58:42;15.80;99.90
39925;DHT22;25592;49.986;11.618;2023-08-08T08:01:29;15.80;99.90
39925;DHT22;25592;49.986;11.618;2023-08-08T08:04:14;15.80;99.90
39925;DHT22;25592;49.986;11.618;2023-08-08T08:06:59;15.90;99.90
39925;DHT22;25592;49.986;11.618;2023-08-08T08:09:45;16.00;99.90
39925;DHT22;25592;49.986;11.618;2023-08-08T08:12:32;16.00;99.90
39925;DHT22;25592;49.986;11.618;2023-08-08T08:15:17;16.10;99.90
39925;DHT22;25592;49.986;11.618;2023-08-08T08:18:03;16.10;99.90
39925;DHT22;25592;49.986;11.618;2023-08-08T08:20:48;16.20;99.90
39925;DHT22;25592;49.986;11.618;2023-08-08T08:23:34;16.40;99.90
39925;DHT22;25592;49.986;11.618;2023-08-08T08:26:19;16.50;99.90
39925;DHT22;25592;49.986;11.618;2023-08-08T08:29:05;16.70;99.90
39925;DHT22;25592;49.986;11.618;2023-08-08T08:31:50;16.70;99.90
39925;DHT22;25592;49.986;11.618;2023-08-08T08:34:36;16.60;99.90
39925;DHT22;25592;49.986;11.618;2023-08-08T08:37:21;16.80;99.90
39925;DHT22;25592;49.986;11.618;2023-08-08T08:40:07;16.90;99.90
39925;DHT22;25592;49.986;11.618;2023-08-08T08:42:54;17.00;99.90
39925;DHT22;25592;49.986;11.618;2023-08-08T08:45:41;17.10;99.90
39925;DHT22;25592;49.986;11.618;2023-08-08T08:48:28;17.20;99.90
39925;DHT22;25592;49.986;11.618;2023-08-08T08:51:14;17.10;99.90
39925;DHT22;25592;49.986;11.618;2023-08-08T08:54:00;17.00;99.90
39925;DHT22;25592;49.986;11.618;2023-08-08T08:56:45;17.20;99.90
39925;DHT22;25592;49.986;11.618;2023-08-08T08:59:31;17.40;99.90
39925;DHT22;25592;49.986;11.618;2023-08-08T09:02:18;17.40;99.90
39925;DHT22;25592;49.986;11.618;2023-08-08T09:05:03;17.40;99.90
39925;DHT22;25592;49.986;11.618;2023-08-08T09:07:49;17.50;99.90
39925;DHT22;25592;49.986;11.618;2023-08-08T09:10:37;17.60;99.90
39925;DHT22;25592;49.986;11.618;2023-08-08T09:13:23;17.70;99.90
39925;DHT22;25592;49.986;11.618;2023-08-08T09:16:11;17.90;99.90
39925;DHT22;25592;49.986;11.618;2023-08-08T09:18:57;18.10;99.90
39925;DHT22;25592;49.986;11.618;2023-08-08T09:21:43;18.20;99.90
39925;DHT22;25592;49.986;11.618;2023-08-08T09:24:28;18.20;99.90
39925;DHT22;25592;49.986;11.618;2023-08-08T09:27:14;18.20;99.30
39925;DHT22;25592;49.986;11.618;2023-08-08T09:30:00;18.00;99.80
39925;DHT22;25592;49.986;11.618;2023-08-08T09:32:45;17.90;99.60
39925;DHT22;25592;49.986;11.618;2023-08-08T09:35:30;18.10;98.60
39925;DHT22;25592;49.986;11.618;2023-08-08T09:38:16;18.10;98.20
39925;DHT22;25592;49.986;11.618;2023-08-08T09:41:02;18.40;98.60
39925;DHT22;25592;49.986;11.618;2023-08-08T09:43:48;18.50;97.70
39925;DHT22;25592;49.986;11.618;2023-08-08T09:46:35;18.70;98.20
39925;DHT22;25592;49.986;11.618;2023-08-08T09:49:21;19.10;97.40
39925;DHT22;25592;49.986;11.618;2023-08-08T09:52:07;19.10;96.00
39925;DHT22;25592;49.986;11.618;2023-08-08T09:54:52;19.10;95.90
39925;DHT22;25592;49.986;11.618;2023-08-08T09:57:39;19.00;95.70
39925;DHT22;25592;49.986;11.618;2023-08-08T10:00:25;19.00;95.90
39925;DHT22;25592;49.986;11.618;2023-08-08T10:03:13;19.00;96.20
39925;DHT22;25592;49.986;11.618;2023-08-08T10:05:58;19.20;95.80
39925;DHT22;25592;49.986;11.618;2023-08-08T10:08:45;19.30;95.40
39925;DHT22;25592;49.986;11.618;2023-08-08T10:11:31;19.00;94.90
39925;DHT22;25592;49.986;11.618;2023-08-08T10:14:17;18.70;96.20
39925;DHT22;25592;49.986;11.618;2023-08-08T10:17:04;18.70;96.30
39925;DHT22;25592;49.986;11.618;2023-08-08T10:19:54;18.90;96.90
39925;DHT22;25592;49.986;11.618;2023-08-08T10:22:44;19.20;96.90
39925;DHT22;25592;49.986;11.618;2023-08-08T10:25:31;19.30;96.00
39925;DHT22;25592;49.986;11.618;2023-08-08T10:28:20;19.10;96.30
39925;DHT22;25592;49.986;11.618;2023-08-08T10:31:17;19.00;96.30
39925;DHT22;25592;49.986;11.618;2023-08-08T10:34:06;18.90;96.80
39925;DHT22;25592;49.986;11.618;2023-08-08T10:36:52;18.90;97.20
39925;DHT22;25592;49.986;11.618;2023-08-08T10:39:48;19.10;97.30
39925;DHT22;25592;49.986;11.618;2023-08-08T10:42:44;19.20;95.10
39925;DHT22;25592;49.986;11.618;2023-08-08T10:45:31;19.00;94.40
39925;DHT22;25592;49.986;11.618;2023-08-08T10:48:16;19.30;95.30
39925;DHT22;25592;49.986;11.618;2023-08-08T10:51:05;19.40;95.50
39925;DHT22;25592;49.986;11.618;2023-08-08T10:53:51;19.30;94.10
39925;DHT22;25592;49.986;11.618;2023-08-08T10:56:37;19.40;94.80
39925;DHT22;25592;49.986;11.618;2023-08-08T10:59:35;19.50;94.50
39925;DHT22;25592;49.986;11.618;2023-08-08T11:02:21;19.30;94.10
39925;DHT22;25592;49.986;11.618;2023-08-08T11:05:07;19.30;94.20
39925;DHT22;25592;49.986;11.618;2023-08-08T11:07:55;19.30;94.20
39925;DHT22;25592;49.986;11.618;2023-08-08T11:10:40;19.50;95.00
39925;DHT22;25592;49.986;11.618;2023-08-08T11:13:26;19.50;94.50
39925;DHT22;25592;49.986;11.618;2023-08-08T11:16:14;19.60;94.10
39925;DHT22;25592;49.986;11.618;2023-08-08T11:19:00;19.40;93.20
39925;DHT22;25592;49.986;11.618;2023-08-08T11:21:46;19.30;93.20
39925;DHT22;25592;49.986;11.618;2023-08-08T11:24:35;19.50;93.90
39925;DHT22;25592;49.986;11.618;2023-08-08T11:27:20;19.80;93.90
39925;DHT22;25592;49.986;11.618;2023-08-08T11:30:08;20.20;92.40
39925;DHT22;25592;49.986;11.618;2023-08-08T11:32:55;19.90;92.90
39925;DHT22;25592;49.986;11.618;2023-08-08T11:35:44;19.90;91.90
39925;DHT22;25592;49.986;11.618;2023-08-08T11:38:34;19.80;92.20
39925;DHT22;25592;49.986;11.618;2023-08-08T11:41:23;19.70;92.50
39925;DHT22;25592;49.986;11.618;2023-08-08T11:44:09;19.60;92.80
39925;DHT22;25592;49.986;11.618;2023-08-08T11:46:54;19.80;93.00
39925;DHT22;25592;49.986;11.618;2023-08-08T11:49:43;20.00;93.20
39925;DHT22;25592;49.986;11.618;2023-08-08T11:52:29;20.20;93.10
39925;DHT22;25592;49.986;11.618;2023-08-08T11:55:15;20.20;92.80
39925;DHT22;25592;49.986;11.618;2023-08-08T11:58:01;20.40;92.60
39925;DHT22;25592;49.986;11.618;2023-08-08T12:00:46;20.50;92.60
39925;DHT22;25592;49.986;11.618;2023-08-08T12:03:35;20.40;92.20
39925;DHT22;25592;49.986;11.618;2023-08-08T12:06:28;20.40;92.20
39925;DHT22;25592;49.986;11.618;2023-08-08T12:09:13;20.30;92.50
39925;DHT22;25592;49.986;11.618;2023-08-08T12:12:03;20.20;92.80
39925;DHT22;25592;49.986;11.618;2023-08-08T12:14:56;20.10;92.60
39925;DHT22;25592;49.986;11.618;2023-08-08T12:17:46;20.30;92.90
39925;DHT22;25592;49.986;11.618;2023-08-08T12:20:31;20.70;92.20
39925;DHT22;25592;49.986;11.618;2023-08-08T12:23:16;20.80;91.80
39925;DHT22;25592;49.986;11.618;2023-08-08T12:26:06;20.80;90.90
39925;DHT22;25592;49.986;11.618;2023-08-08T12:28:52;20.80;90.30
39925;DHT22;25592;49.986;11.618;2023-08-08T12:31:39;20.60;90.50
39925;DHT22;25592;49.986;11.618;2023-08-08T12:34:25;20.60;90.40
39925;DHT22;25592;49.986;11.618;2023-08-08T12:37:10;20.70;91.20
39925;DHT22;25592;49.986;11.618;2023-08-08T12:39:55;20.60;90.30
39925;DHT22;25592;49.986;11.618;2023-08-08T12:42:42;20.40;90.50
39925;DHT22;25592;49.986;11.618;2023-08-08T12:45:27;20.30;90.90
39925;DHT22;25592;49.986;11.618;2023-08-08T12:48:13;20.20;90.40
39925;DHT22;25592;49.986;11.618;2023-08-08T12:50:58;20.20;90.80
39925;DHT22;25592;49.986;11.618;2023-08-08T12:53:44;20.10;90.90
39925;DHT22;25592;49.986;11.618;2023-08-08T12:56:29;20.10;91.40
39925;DHT22;25592;49.986;11.618;2023-08-08T12:59:15;20.10;91.40
39925;DHT22;25592;49.986;11.618;2023-08-08T13:02:00;20.10;90.80
39925;DHT22;25592;49.986;11.618;2023-08-08T13:04:46;20.30;91.20
39925;DHT22;25592;49.986;11.618;2023-08-08T13:07:32;20.50;91.40
39925;DHT22;25592;49.986;11.618;2023-08-08T13:10:17;20.60;91.70
39925;DHT22;25592;49.986;11.618;2023-08-08T13:13:05;20.70;91.50
39925;DHT22;25592;49.986;11.618;2023-08-08T13:15:51;20.60;90.50
39925;DHT22;25592;49.986;11.618;2023-08-08T13:18:36;20.50;90.10
39925;DHT22;25592;49.986;11.618;2023-08-08T13:21:22;20.30;89.90
39925;DHT22;25592;49.986;11.618;2023-08-08T13:24:07;20.30;90.20
39925;DHT22;25592;49.986;11.618;2023-08-08T13:26:55;20.30;90.30
39925;DHT22;25592;49.986;11.618;2023-08-08T13:29:40;20.50;90.50
39925;DHT22;25592;49.986;11.618;2023-08-08T13:32:26;20.60;90.90
39925;DHT22;25592;49.986;11.618;2023-08-08T13:35:11;20.50;90.40
39925;DHT22;25592;49.986;11.618;2023-08-08T13:37:57;20.30;90.40
39925;DHT22;25592;49.986;11.618;2023-08-08T13:40:42;20.50;91.00
39925;DHT22;25592;49.986;11.618;2023-08-08T13:43:28;20.50;90.80
39925;DHT22;25592;49.986;11.618;2023-08-08T13:46:15;20.40;90.60
39925;DHT22;25592;49.986;11.618;2023-08-08T13:49:00;20.40;90.80
39925;DHT22;25592;49.986;11.618;2023-08-08T13:51:46;20.40;90.50
39925;DHT22;25592;49.986;11.618;2023-08-08T13:54:35;20.40;90.60
39925;DHT22;25592;49.986;11.618;2023-08-08T13:57:20;20.40;90.70
39925;DHT22;25592;49.986;11.618;2023-08-08T14:00:06;20.50;91.10
39925;DHT22;25592;49.986;11.618;2023-08-08T14:02:56;20.40;91.10
39925;DHT22;25592;49.986;11.618;2023-08-08T14:05:41;20.30;91.10
39925;DHT22;25592;49.986;11.618;2023-08-08T14:08:27;20.20;91.10
39925;DHT22;25592;49.986;11.618;2023-08-08T14:11:12;20.00;91.00
39925;DHT22;25592;49.986;11.618;2023-08-08T14:13:57;19.80;91.00
39925;DHT22;25592;49.986;11.618;2023-08-08T14:16:43;19.90;91.30
39925;DHT22;25592;49.986;11.618;2023-08-08T14:19:29;19.90;91.30
39925;DHT22;25592;49.986;11.618;2023-08-08T14:22:14;19.90;91.20
39925;DHT22;25592;49.986;11.618;2023-08-08T14:25:00;19.90;91.40
39925;DHT22;25592;49.986;11.618;2023-08-08T14:27:45;19.90;91.60
39925;DHT22;25592;49.986;11.618;2023-08-08T14:30:31;19.90;91.40
39925;DHT22;25592;49.986;11.618;2023-08-08T14:33:16;19.70;91.40
39925;DHT22;25592;49.986;11.618;2023-08-08T14:36:02;19.70;91.70
39925;DHT22;25592;49.986;11.618;2023-08-08T14:38:48;19.80;91.50
39925;DHT22;25592;49.986;11.618;2023-08-08T14:41:33;19.80;91.40
39925;DHT22;25592;49.986;11.618;2023-08-08T14:44:19;19.80;91.50
39925;DHT22;25592;49.986;11.618;2023-08-08T14:47:05;19.90;91.20
39925;DHT22;25592;49.986;11.618;2023-08-08T14:49:50;19.80;91.00
39925;DHT22;25592;49.986;11.618;2023-08-08T14:52:36;19.90;91.10
39925;DHT22;25592;49.986;11.618;2023-08-08T14:55:22;19.90;91.20
39925;DHT22;25592;49.986;11.618;2023-08-08T14:58:07;20.00;91.40
39925;DHT22;25592;49.986;11.618;2023-08-08T15:00:53;20.10;91.00
39925;DHT22;25592;49.986;11.618;2023-08-08T15:03:38;20.10;91.00
39925;DHT22;25592;49.986;11.618;2023-08-08T15:06:26;20.20;91.00
39925;DHT22;25592;49.986;11.618;2023-08-08T15:09:12;20.40;91.40
39925;DHT22;25592;49.986;11.618;2023-08-08T15:11:58;20.30;90.60
39925;DHT22;25592;49.986;11.618;2023-08-08T15:14:44;20.50;91.00
39925;DHT22;25592;49.986;11.618;2023-08-08T15:17:29;20.70;91.20
39925;DHT22;25592;49.986;11.618;2023-08-08T15:20:15;20.70;90.70
39925;DHT22;25592;49.986;11.618;2023-08-08T15:23:00;20.80;91.10
39925;DHT22;25592;49.986;11.618;2023-08-08T15:25:46;20.80;91.20
39925;DHT22;25592;49.986;11.618;2023-08-08T15:28:32;20.80;90.60
39925;DHT22;25592;49.986;11.618;2023-08-08T15:31:17;20.60;90.30
39925;DHT22;25592;49.986;11.618;2023-08-08T15:34:03;20.60;89.60
39925;DHT22;25592;49.986;11.618;2023-08-08T15:36:48;20.50;90.10
39925;DHT22;25592;49.986;11.618;2023-08-08T15:39:34;20.40;89.40
39925;DHT22;25592;49.986;11.618;2023-08-08T15:42:20;20.30;89.10
39925;DHT22;25592;49.986;11.618;2023-08-08T15:45:07;20.20;89.60
39925;DHT22;25592;49.986;11.618;2023-08-08T15:47:52;20.20;90.00
39925;DHT22;25592;49.986;11.618;2023-08-08T15:50:38;20.10;90.10
39925;DHT22;25592;49.986;11.618;2023-08-08T15:53:24;20.20;90.00
39925;DHT22;25592;49.986;11.618;2023-08-08T15:56:09;20.30;90.20
39925;DHT22;25592;49.986;11.618;2023-08-08T15:58:55;20.20;90.40
39925;DHT22;25592;49.986;11.618;2023-08-08T16:01:40;20.10;90.70
39925;DHT22;25592;49.986;11.618;2023-08-08T16:04:26;20.00;91.20
39925;DHT22;25592;49.986;11.618;2023-08-08T16:07:11;20.00;91.50
39925;DHT22;25592;49.986;11.618;2023-08-08T16:09:58;20.00;91.40
39925;DHT22;25592;49.986;11.618;2023-08-08T16:12:43;19.90;91.50
39925;DHT22;25592;49.986;11.618;2023-08-08T16:15:29;19.80;91.40
39925;DHT22;25592;49.986;11.618;2023-08-08T16:18:14;19.80;92.20
39925;DHT22;25592;49.986;11.618;2023-08-08T16:20:59;19.90;91.80
39925;DHT22;25592;49.986;11.618;2023-08-08T16:23:46;19.90;92.00
39925;DHT22;25592;49.986;11.618;2023-08-08T16:26:31;19.80;92.10
39925;DHT22;25592;49.986;11.618;2023-08-08T16:29:16;19.90;92.40
39925;DHT22;25592;49.986;11.618;2023-08-08T16:32:02;19.90;92.50
39925;DHT22;25592;49.986;11.618;2023-08-08T16:34:48;19.80;92.10
39925;DHT22;25592;49.986;11.618;2023-08-08T16:37:34;19.70;91.80
39925;DHT22;25592;49.986;11.618;2023-08-08T16:40:19;19.60;91.80
39925;DHT22;25592;49.986;11.618;2023-08-08T16:43:05;19.50;91.80
39925;DHT22;25592;49.986;11.618;2023-08-08T16:45:50;19.50;92.20
39925;DHT22;25592;49.986;11.618;2023-08-08T16:48:36;19.50;92.20
39925;DHT22;25592;49.986;11.618;2023-08-08T16:51:22;19.50;92.20
39925;DHT22;25592;49.986;11.618;2023-08-08T16:54:07;19.60;92.30
39925;DHT22;25592;49.986;11.618;2023-08-08T16:56:52;19.50;92.40
39925;DHT22;25592;49.986;11.618;2023-08-08T16:59:38;19.50;92.20
39925;DHT22;25592;49.986;11.618;2023-08-08T17:02:23;19.50;92.40
39925;DHT22;25592;49.986;11.618;2023-08-08T17:05:09;19.50;92.40
39925;DHT22;25592;49.986;11.618;2023-08-08T17:07:54;19.50;92.40
39925;DHT22;25592;49.986;11.618;2023-08-08T17:10:40;19.50;92.50
39925;DHT22;25592;49.986;11.618;2023-08-08T17:13:26;19.60;92.90